Time;durP1;ratioP1;P1;durP2;ratioP2;P2;SDS_P1;SDS_P2;PMS_P1;PMS_P2;Temp;Humidity;BMP_temperature;BMP_pressure;BME280_temperature;BME280_humidity;BME280_pressure;Samples;Min_cycle;Max_cycle;Signal;HPM_P1;HPM_P2
2021/12/21 00:01:31;;;;;;;10.32;7.20;;;0.10;85.00;;;;;;4938262;28;92342;-79
2021/12/21 00:03:59;;;;;;;11.20;8.10;;;0.00;84.50;;;;;;4938482;28;91763;-79
2021/12/21 00:06:26;;;;;;;8.98;7.55;;;0.00;84.20;;;;;;4936747;28;94071;-79
2021/12/21 00:08:53;;;;;;;10.10;7.15;;;0.00;83.90;;;;;;4920150;28;101102;-70
2021/12/21 00:11:20;;;;;;;11.90;6.78;;;0.00;83.80;;;;;;4935565;28;94831;-70
2021/12/21 00:21:55;;;;;;;10.35;6.90;;;-0.10;84.20;;;;;;4935690;28;95483;-70
2021/12/21 00:24:29;;;;;;;10.07;7.00;;;-0.10;84.80;;;;;;4937798;28;92478;-79
2021/12/21 00:26:56;;;;;;;11.75;7.20;;;-0.10;84.10;;;;;;4936566;28;93716;-70
2021/12/21 00:29:23;;;;;;;10.80;6.90;;;-0.10;84.00;;;;;;4938104;28;91762;-70
2021/12/21 00:31:50;;;;;;;8.32;6.20;;;-0.10;83.90;;;;;;4937451;28;92437;-70
2021/12/21 00:34:17;;;;;;;8.35;6.68;;;-0.20;83.80;;;;;;4935975;28;96751;-70
2021/12/21 00:36:46;;;;;;;11.93;6.78;;;-0.20;83.80;;;;;;4936247;28;95536;-70
2021/12/21 00:39:15;;;;;;;10.95;6.93;;;-0.20;83.90;;;;;;4937439;28;94011;-70
2021/12/21 00:41:42;;;;;;;7.63;6.57;;;-0.20;84.00;;;;;;4937446;28;92416;-70
2021/12/21 00:44:09;;;;;;;9.55;7.22;;;-0.20;84.00;;;;;;4936324;28;92514;-70
2021/12/21 00:46:39;;;;;;;12.40;7.55;;;-0.20;84.00;;;;;;4936127;28;93123;-70
2021/12/21 00:49:14;;;;;;;9.38;6.60;;;-0.20;84.00;;;;;;4936871;28;101370;-70
2021/12/21 00:51:43;;;;;;;10.57;6.63;;;-0.20;84.00;;;;;;4937412;28;92422;-70
2021/12/21 00:54:11;;;;;;;9.45;6.32;;;-0.30;83.80;;;;;;4937151;28;104456;-70
2021/12/21 00:56:38;;;;;;;10.48;7.35;;;-0.30;83.90;;;;;;4937102;28;93164;-70
2021/12/21 00:59:05;;;;;;;15.18;7.80;;;-0.30;83.80;;;;;;4936999;28;92783;-70
2021/12/21 01:01:35;;;;;;;13.55;7.40;;;-0.30;83.70;;;;;;4934720;28;94784;-70
2021/12/21 01:04:07;;;;;;;12.90;7.15;;;-0.30;83.80;;;;;;4935520;28;92498;-70
2021/12/21 01:06:42;;;;;;;10.32;7.30;;;-0.30;83.80;;;;;;4937135;28;93210;-79
2021/12/21 01:09:19;;;;;;;13.57;7.70;;;-0.30;83.90;;;;;;4935991;28;95603;-78
2021/12/21 01:11:49;;;;;;;10.95;7.20;;;-0.30;84.00;;;;;;4935441;28;92484;-79
2021/12/21 01:17:10;;;;;;;14.70;8.13;;;-0.30;84.40;;;;;;4936704;28;98414;-79
2021/12/21 01:19:44;;;;;;;13.25;8.30;;;-0.30;85.00;;;;;;4937505;28;92867;-79
2021/12/21 01:22:23;;;;;;;14.82;8.27;;;-0.30;85.40;;;;;;4935484;28;92428;-79
2021/12/21 01:25:12;;;;;;;11.65;8.25;;;-0.30;85.30;;;;;;4936943;28;92447;-79
2021/12/21 01:30:17;;;;;;;8.32;7.03;;;-0.40;85.10;;;;;;4935306;28;95180;-78
2021/12/21 01:35:25;;;;;;;9.50;6.88;;;-0.40;84.40;;;;;;4936662;28;92382;-70
2021/12/21 01:38:06;;;;;;;8.95;7.07;;;-0.40;84.30;;;;;;4936612;28;93218;-70
2021/12/21 01:40:50;;;;;;;9.90;8.00;;;-0.40;84.00;;;;;;4936766;28;92714;-70
2021/12/21 01:51:17;;;;;;;12.27;7.53;;;-0.40;84.80;;;;;;4934893;28;98597;-70
2021/12/21 01:53:45;;;;;;;14.18;7.78;;;-0.50;84.50;;;;;;4917877;28;95872;-70
2021/12/21 01:56:13;;;;;;;9.90;7.07;;;-0.50;84.30;;;;;;4936201;28;92451;-70
2021/12/21 01:58:41;;;;;;;11.50;6.85;;;-0.50;84.20;;;;;;4935052;28;95241;-70
2021/12/21 02:01:11;;;;;;;10.10;6.65;;;-0.50;84.00;;;;;;4934613;28;95759;-69
2021/12/21 02:03:39;;;;;;;12.05;7.32;;;-0.50;83.80;;;;;;4936599;28;92466;-70
2021/12/21 02:06:06;;;;;;;10.88;6.72;;;-0.50;83.80;;;;;;4935975;28;92442;-70
2021/12/21 02:08:33;;;;;;;10.77;6.95;;;-0.50;83.50;;;;;;4936634;28;95006;-70
2021/12/21 02:11:04;;;;;;;12.25;7.25;;;-0.60;83.50;;;;;;4918910;28;95827;-70
2021/12/21 02:13:35;;;;;;;13.90;7.88;;;-0.60;83.50;;;;;;4935466;28;92653;-70
2021/12/21 02:16:04;;;;;;;13.45;8.43;;;-0.60;83.40;;;;;;4936284;28;92455;-69
2021/12/21 02:23:45;;;;;;;12.52;8.45;;;-0.60;83.60;;;;;;4936058;28;92658;-78
2021/12/21 02:29:08;;;;;;;13.30;7.88;;;-0.70;83.70;;;;;;4936166;28;93053;-69
2021/12/21 02:31:33;;;;;;;12.73;8.77;;;-0.70;84.20;;;;;;4935728;28;93000;-70
2021/12/21 02:34:00;;;;;;;13.05;7.95;;;-0.70;83.60;;;;;;4935569;28;94116;-69
2021/12/21 02:36:27;;;;;;;13.30;8.10;;;-0.70;83.80;;;;;;4936626;28;91828;-70
2021/12/21 02:38:54;;;;;;;17.08;8.95;;;-0.70;83.80;;;;;;4918060;28;98054;-69
2021/12/21 02:41:21;;;;;;;15.48;8.25;;;-0.70;83.80;;;;;;4934259;28;95695;-69
2021/12/21 02:43:48;;;;;;;11.40;8.82;;;-0.70;83.80;;;;;;4937003;28;94892;-69
2021/12/21 02:46:15;;;;;;;13.13;9.25;;;-0.70;84.10;;;;;;4939379;28;92700;-69
2021/12/21 02:48:42;;;;;;;12.30;9.02;;;-0.70;84.70;;;;;;4939355;28;92956;-78
2021/12/21 02:51:08;;;;;;;15.25;10.02;;;-0.70;85.00;;;;;;4938637;28;92718;-78
2021/12/21 02:53:36;;;;;;;13.23;9.35;;;-0.70;85.00;;;;;;4938765;28;92434;-78
2021/12/21 02:56:03;;;;;;;14.60;8.98;;;-0.70;85.20;;;;;;4939084;28;92886;-78
2021/12/21 02:58:30;;;;;;;13.20;8.88;;;-0.70;85.00;;;;;;4938298;28;105628;-79
2021/12/21 03:00:57;;;;;;;13.25;9.73;;;-0.70;84.80;;;;;;4939558;28;92693;-78
2021/12/21 03:03:26;;;;;;;12.50;9.38;;;-0.80;84.80;;;;;;4937621;28;92458;-78
2021/12/21 03:05:56;;;;;;;14.50;9.35;;;-0.80;84.70;;;;;;4937763;28;92543;-78
2021/12/21 03:08:37;;;;;;;16.00;9.65;;;-0.80;84.50;;;;;;4937070;28;95563;-78
2021/12/21 03:11:13;;;;;;;16.25;9.50;;;-0.80;84.60;;;;;;4937639;28;95312;-78
2021/12/21 03:16:26;;;;;;;12.50;9.23;;;-0.90;85.20;;;;;;4938653;28;92468;-78
2021/12/21 03:18:55;;;;;;;13.65;8.98;;;-0.90;85.10;;;;;;4953678;28;93058;-78
2021/12/21 03:21:23;;;;;;;16.38;8.75;;;-0.90;84.50;;;;;;4937506;28;94981;-78
2021/12/21 03:23:50;;;;;;;10.95;8.60;;;-0.90;84.20;;;;;;4938807;28;92510;-78
2021/12/21 03:26:17;;;;;;;11.48;8.60;;;-0.90;84.00;;;;;;4954032;28;91851;-78
2021/12/21 03:28:44;;;;;;;14.77;8.95;;;-0.90;84.00;;;;;;4921286;28;94231;-70
2021/12/21 03:31:11;;;;;;;10.63;8.38;;;-1.00;83.90;;;;;;4938405;28;92961;-70
2021/12/21 03:33:38;;;;;;;12.40;8.70;;;-1.00;83.80;;;;;;4952338;28;94847;-70
2021/12/21 03:36:05;;;;;;;15.25;9.35;;;-0.90;83.80;;;;;;4938811;28;92855;-70
2021/12/21 03:38:34;;;;;;;13.70;9.07;;;-1.00;83.70;;;;;;4938434;28;96897;-70
2021/12/21 03:41:09;;;;;;;16.02;8.90;;;-1.00;83.70;;;;;;4938484;28;93312;-70
2021/12/21 03:43:36;;;;;;;12.82;8.27;;;-1.00;83.80;;;;;;4938905;28;92515;-70
2021/12/21 03:46:14;;;;;;;17.45;9.07;;;-1.00;83.90;;;;;;4937941;28;105922;-70
2021/12/21 03:48:45;;;;;;;13.23;8.48;;;-1.00;84.20;;;;;;4938453;28;93074;-70
2021/12/21 03:51:14;;;;;;;14.45;7.90;;;-1.00;84.50;;;;;;4938386;28;91696;-70
2021/12/21 03:53:42;;;;;;;13.65;8.88;;;-1.00;84.40;;;;;;4938069;28;92335;-70
2021/12/21 03:56:52;;;;;;;14.10;8.85;;;-1.00;84.20;;;;;;4936535;28;92509;-70
2021/12/21 03:58:59;;;;;;;10.52;8.30;;;-1.00;84.10;;;;;;4935405;28;95485;-70
2021/12/21 04:01:27;;;;;;;12.10;7.95;;;-1.00;83.90;;;;;;4936488;28;95339;-78
2021/12/21 04:03:54;;;;;;;11.43;8.57;;;-1.00;83.70;;;;;;4938266;28;92405;-78
2021/12/21 04:06:21;;;;;;;15.20;8.25;;;-1.00;83.50;;;;;;4937582;28;92697;-78
2021/12/21 04:08:48;;;;;;;9.50;8.20;;;-1.00;83.90;;;;;;4938047;28;93104;-78
2021/12/21 04:11:15;;;;;;;13.50;7.90;;;-1.10;83.40;;;;;;4952566;28;92819;-78
2021/12/21 04:13:42;;;;;;;12.02;8.80;;;-1.10;83.40;;;;;;4937972;28;92369;-78
2021/12/21 04:16:09;;;;;;;12.40;8.10;;;-1.10;83.40;;;;;;4938477;28;91735;-78
2021/12/21 04:18:38;;;;;;;15.93;10.63;;;-1.10;83.50;;;;;;4952547;28;93490;-78
2021/12/21 04:21:09;;;;;;;13.10;7.88;;;-1.10;83.60;;;;;;4936684;28;92964;-78
2021/12/21 04:23:36;;;;;;;18.02;8.60;;;-1.10;83.60;;;;;;4935171;28;94877;-78
2021/12/21 04:26:03;;;;;;;14.10;8.43;;;-1.10;83.50;;;;;;4936625;28;92523;-71
2021/12/21 04:28:30;;;;;;;11.25;8.93;;;-1.10;83.50;;;;;;4936351;28;92959;-70
2021/12/21 04:30:57;;;;;;;14.75;8.95;;;-1.10;83.70;;;;;;4936364;28;95882;-70
2021/12/21 04:33:24;;;;;;;15.45;9.02;;;-1.10;83.90;;;;;;4937343;28;92403;-70
2021/12/21 04:35:51;;;;;;;13.15;8.65;;;-1.20;84.20;;;;;;4937665;28;92426;-70
2021/12/21 04:38:22;;;;;;;11.68;8.55;;;-1.10;84.80;;;;;;4919317;28;106419;-70
2021/12/21 04:40:56;;;;;;;14.85;8.20;;;-1.10;84.60;;;;;;4938069;28;91752;-70
2021/12/21 04:43:23;;;;;;;13.85;9.10;;;-1.20;84.20;;;;;;4936067;28;92494;-70
2021/12/21 04:45:50;;;;;;;13.07;8.32;;;-1.20;83.90;;;;;;4937635;28;92438;-78
2021/12/21 04:48:18;;;;;;;11.13;7.78;;;-1.20;83.80;;;;;;4936078;28;97810;-78
2021/12/21 04:50:45;;;;;;;15.65;10.10;;;-1.20;83.90;;;;;;4935760;28;97837;-78
2021/12/21 04:53:12;;;;;;;13.52;8.40;;;-1.20;84.00;;;;;;4935585;28;92444;-78
2021/12/21 04:55:39;;;;;;;11.75;8.82;;;-1.20;84.40;;;;;;4937153;28;92425;-78
2021/12/21 04:58:06;;;;;;;11.30;8.13;;;-1.20;84.80;;;;;;4937246;28;93173;-78
2021/12/21 05:00:34;;;;;;;10.75;8.07;;;-1.20;84.80;;;;;;4936783;28;92950;-78
2021/12/21 05:03:01;;;;;;;15.30;8.88;;;-1.20;84.70;;;;;;4937459;28;92348;-78
2021/12/21 05:05:28;;;;;;;12.68;8.40;;;-1.20;85.00;;;;;;4952174;28;91668;-70
2021/12/21 05:08:07;;;;;;;16.52;9.25;;;-1.20;85.20;;;;;;4935936;28;95817;-70
2021/12/21 05:10:42;;;;;;;11.13;7.63;;;-1.20;85.30;;;;;;4935622;28;93821;-70
2021/12/21 05:13:09;;;;;;;12.65;8.95;;;-1.20;85.60;;;;;;4936129;28;94868;-70
2021/12/21 05:15:36;;;;;;;12.65;7.95;;;-1.20;85.80;;;;;;4935575;28;92409;-70
2021/12/21 05:18:04;;;;;;;9.15;7.40;;;-1.20;85.30;;;;;;4936270;28;108467;-70
2021/12/21 05:20:30;;;;;;;10.15;7.82;;;-1.20;84.50;;;;;;4936214;28;92714;-70
2021/12/21 05:22:58;;;;;;;11.48;8.00;;;-1.20;84.30;;;;;;4935593;28;92509;-70
2021/12/21 05:25:24;;;;;;;12.02;6.97;;;-1.30;83.40;;;;;;4951899;28;93386;-70
2021/12/21 05:27:51;;;;;;;10.50;6.82;;;-1.30;83.60;;;;;;4951826;28;92958;-70
2021/12/21 05:30:18;;;;;;;12.23;7.68;;;-1.30;83.40;;;;;;4937201;28;92732;-70
2021/12/21 05:32:46;;;;;;;13.55;6.90;;;-1.30;83.50;;;;;;4935316;28;92613;-78
2021/12/21 05:35:13;;;;;;;10.70;7.28;;;-1.40;83.50;;;;;;4936868;28;92567;-70
2021/12/21 05:37:41;;;;;;;12.57;7.38;;;-1.40;83.60;;;;;;4933813;28;98459;-70
2021/12/21 05:42:36;;;;;;;11.77;7.45;;;-1.40;83.40;;;;;;4935272;28;92463;-70
2021/12/21 05:45:04;;;;;;;11.82;7.10;;;-1.40;83.50;;;;;;4936785;28;92473;-70
2021/12/21 05:47:31;;;;;;;10.63;7.28;;;-1.40;83.90;;;;;;4935860;28;107331;-71
2021/12/21 05:49:59;;;;;;;14.38;7.35;;;-1.40;84.20;;;;;;4951650;28;93421;-70
2021/12/21 05:52:26;;;;;;;12.43;7.20;;;-1.40;84.40;;;;;;4935407;28;92584;-70
2021/12/21 05:54:53;;;;;;;12.93;8.23;;;-1.40;84.40;;;;;;4935544;28;91890;-78
2021/12/21 05:57:19;;;;;;;10.65;7.75;;;-1.40;84.40;;;;;;4935197;28;95739;-78
2021/12/21 05:59:46;;;;;;;12.68;7.57;;;-1.40;84.40;;;;;;4935926;28;92660;-78
2021/12/21 06:02:13;;;;;;;10.80;7.28;;;-1.40;84.40;;;;;;4934139;28;94785;-78
2021/12/21 06:04:40;;;;;;;11.82;7.55;;;-1.40;84.30;;;;;;4936234;28;92346;-78
2021/12/21 06:07:07;;;;;;;13.63;7.70;;;-1.30;84.40;;;;;;4936327;28;92984;-70
2021/12/21 06:09:34;;;;;;;13.52;7.07;;;-1.40;84.10;;;;;;4935534;28;106565;-70
2021/12/21 06:12:15;;;;;;;12.57;7.30;;;-1.30;83.90;;;;;;4936287;28;92432;-70
2021/12/21 06:23:08;;;;;;;11.48;6.88;;;-1.40;84.70;;;;;;4954083;28;92568;-78
2021/12/21 06:28:03;;;;;;;13.50;6.90;;;-1.40;85.40;;;;;;4952830;28;95544;-78
2021/12/21 06:30:30;;;;;;;14.25;7.95;;;-1.40;84.90;;;;;;4939252;28;95234;-78
2021/12/21 06:32:57;;;;;;;13.30;7.60;;;-1.40;85.00;;;;;;4939598;28;92438;-78
2021/12/21 06:35:24;;;;;;;13.38;7.57;;;-1.40;85.00;;;;;;4939692;28;92484;-78
2021/12/21 06:37:52;;;;;;;9.73;6.50;;;-1.40;84.80;;;;;;4937618;28;96073;-78
2021/12/21 06:40:20;;;;;;;14.48;7.10;;;-1.50;84.60;;;;;;4954241;28;94331;-78
2021/12/21 06:42:49;;;;;;;9.30;6.85;;;-1.50;84.20;;;;;;4937859;28;92636;-78
2021/12/21 06:45:29;;;;;;;12.07;7.03;;;-1.40;84.20;;;;;;4939575;28;91664;-78
2021/12/21 06:53:28;;;;;;;11.50;6.57;;;-1.50;83.80;;;;;;4938210;28;94882;-78
2021/12/21 06:55:55;;;;;;;7.90;6.38;;;-1.50;83.50;;;;;;4938936;28;92505;-78
2021/12/21 06:58:22;;;;;;;8.23;6.20;;;-1.50;83.20;;;;;;4953796;28;93761;-78
2021/12/21 07:00:52;;;;;;;11.45;6.63;;;-1.50;83.40;;;;;;4939007;28;92687;-78
2021/12/21 07:03:20;;;;;;;7.30;5.32;;;-1.50;83.40;;;;;;4937785;28;92926;-71
2021/12/21 07:05:49;;;;;;;7.97;5.28;;;-1.40;84.00;;;;;;4953576;28;92486;-71
2021/12/21 07:08:21;;;;;;;22.00;11.65;;;-1.50;83.20;;;;;;4938977;28;93228;-70
2021/12/21 07:10:56;;;;;;;18.60;10.82;;;-1.50;83.00;;;;;;4952552;28;92837;-71
2021/12/21 07:18:55;;;;;;;9.52;6.70;;;-1.50;84.40;;;;;;4937357;28;95499;-71
2021/12/21 07:21:22;;;;;;;11.15;7.10;;;-1.40;84.50;;;;;;4937583;28;95228;-70
2021/12/21 07:23:51;;;;;;;12.13;6.68;;;-1.40;84.80;;;;;;4938228;28;92466;-71
2021/12/21 07:26:18;;;;;;;9.68;6.15;;;-1.40;84.80;;;;;;4937377;28;92560;-70
2021/12/21 07:28:45;;;;;;;9.73;6.18;;;-1.40;84.80;;;;;;4937564;28;92437;-70
2021/12/21 07:31:12;;;;;;;9.63;5.30;;;-1.40;84.10;;;;;;4952721;28;102478;-71
2021/12/21 07:33:39;;;;;;;11.13;5.60;;;-1.40;83.40;;;;;;4921034;28;93287;-78
2021/12/21 07:36:06;;;;;;;8.90;5.57;;;-1.40;83.40;;;;;;4937159;28;91807;-78
2021/12/21 07:38:33;;;;;;;9.80;5.60;;;-1.40;83.10;;;;;;4938449;28;93202;-78
2021/12/21 07:41:00;;;;;;;7.22;5.38;;;-1.40;83.00;;;;;;4936413;28;100679;-78
2021/12/21 07:43:28;;;;;;;7.18;5.38;;;-1.40;83.00;;;;;;4937489;28;94828;-78
2021/12/21 07:45:55;;;;;;;9.60;6.55;;;-1.40;83.40;;;;;;4938078;28;92458;-78
2021/12/21 07:48:22;;;;;;;10.90;6.25;;;-1.40;83.20;;;;;;4938132;28;93006;-78
2021/12/21 07:50:51;;;;;;;9.93;7.03;;;-1.40;83.50;;;;;;4937816;28;92506;-78
2021/12/21 07:53:19;;;;;;;16.33;9.23;;;-1.30;83.50;;;;;;4938518;28;92498;-78
2021/12/21 07:55:46;;;;;;;9.27;7.03;;;-1.30;83.30;;;;;;4938201;28;92504;-78
2021/12/21 07:58:14;;;;;;;13.23;7.88;;;-1.30;83.30;;;;;;4937759;28;92964;-78
2021/12/21 08:00:41;;;;;;;12.00;7.40;;;-1.30;83.80;;;;;;4938282;28;92756;-78
2021/12/21 08:03:09;;;;;;;15.20;7.03;;;-1.30;84.20;;;;;;4936878;28;92900;-78
2021/12/21 08:05:37;;;;;;;9.43;7.00;;;-1.20;84.30;;;;;;4936511;28;92556;-78
2021/12/21 08:08:18;;;;;;;10.20;6.30;;;-1.20;84.00;;;;;;4936456;28;96139;-79
2021/12/21 08:11:07;;;;;;;9.93;6.40;;;-1.20;83.40;;;;;;4936974;28;95223;-71
2021/12/21 08:13:35;;;;;;;8.95;6.32;;;-1.20;82.80;;;;;;4938358;28;92360;-71
2021/12/21 08:16:03;;;;;;;10.38;6.43;;;-1.20;82.30;;;;;;4936045;28;92503;-71
2021/12/21 08:18:30;;;;;;;8.40;6.78;;;-1.20;82.20;;;;;;4936407;28;95747;-78
2021/12/21 08:20:57;;;;;;;10.15;7.55;;;-1.10;82.30;;;;;;4928404;28;95555;-79
2021/12/21 08:23:24;;;;;;;11.48;6.85;;;-1.10;82.10;;;;;;4918695;28;92419;-78
2021/12/21 08:25:52;;;;;;;13.82;7.35;;;-1.00;82.00;;;;;;4919041;28;92312;-79
2021/12/21 08:28:20;;;;;;;20.90;12.45;;;-1.00;81.80;;;;;;4918405;28;92409;-79
2021/12/21 08:30:47;;;;;;;25.88;12.55;;;-1.00;81.70;;;;;;4917798;28;92999;-71
2021/12/21 08:33:14;;;;;;;10.30;7.53;;;-1.00;81.50;;;;;;4915460;28;95048;-79
2021/12/21 08:35:41;;;;;;;10.23;7.38;;;-0.90;81.50;;;;;;4918439;28;92419;-79
2021/12/21 08:38:14;;;;;;;13.57;6.88;;;-0.90;81.30;;;;;;4916807;28;94714;-71
2021/12/21 08:40:43;;;;;;;10.05;6.88;;;-0.80;81.40;;;;;;4916738;28;92897;-71
2021/12/21 08:43:13;;;;;;;10.48;7.32;;;-0.80;81.30;;;;;;4916865;28;92726;-71
2021/12/21 08:45:44;;;;;;;10.15;7.13;;;-0.80;81.40;;;;;;4918257;28;92440;-71
2021/12/21 08:48:13;;;;;;;12.10;7.80;;;-0.70;81.40;;;;;;4900659;28;94348;-79
2021/12/21 08:50:40;;;;;;;10.32;7.57;;;-0.60;81.60;;;;;;4917902;28;106237;-80
2021/12/21 08:53:08;;;;;;;12.70;8.80;;;-0.60;81.50;;;;;;4918056;28;92351;-79
2021/12/21 08:55:35;;;;;;;12.70;7.70;;;-0.50;81.90;;;;;;4918007;28;92472;-79
2021/12/21 08:58:02;;;;;;;9.50;7.63;;;-0.50;82.00;;;;;;4916549;28;95519;-79
2021/12/21 09:00:29;;;;;;;11.25;7.05;;;-0.40;82.00;;;;;;4917970;28;95129;-71
2021/12/21 09:02:56;;;;;;;9.32;6.82;;;-0.40;82.00;;;;;;4916782;28;92865;-71
2021/12/21 09:05:27;;;;;;;11.43;6.40;;;-0.30;81.80;;;;;;4916438;28;92606;-71
2021/12/21 09:07:55;;;;;;;12.65;7.13;;;-0.20;81.60;;;;;;4916665;28;93099;-71
2021/12/21 09:10:24;;;;;;;9.65;6.93;;;-0.20;81.60;;;;;;4917568;28;93250;-79
2021/12/21 09:12:51;;;;;;;12.77;8.00;;;-0.10;81.70;;;;;;4916739;28;92554;-80
2021/12/21 09:15:19;;;;;;;12.77;7.70;;;0.00;81.90;;;;;;4916943;28;92671;-71
2021/12/21 09:17:47;;;;;;;11.18;7.20;;;0.00;81.90;;;;;;4917335;28;102346;-71
2021/12/21 09:20:18;;;;;;;12.15;7.18;;;0.10;81.70;;;;;;4932098;28;95723;-80
2021/12/21 09:22:46;;;;;;;11.55;7.90;;;0.10;81.60;;;;;;4915367;28;94773;-80
2021/12/21 09:25:14;;;;;;;11.60;8.23;;;0.20;81.80;;;;;;4917294;28;92959;-80
2021/12/21 09:27:41;;;;;;;10.70;7.65;;;0.30;81.70;;;;;;4916329;28;93128;-80
2021/12/21 09:30:12;;;;;;;13.65;9.77;;;0.40;81.50;;;;;;4917439;28;92921;-80
2021/12/21 09:32:40;;;;;;;10.73;8.75;;;0.50;81.50;;;;;;4916124;28;92701;-79
2021/12/21 09:35:08;;;;;;;11.93;9.60;;;0.50;81.30;;;;;;4915994;28;92477;-80
2021/12/21 09:37:35;;;;;;;13.65;8.88;;;0.60;81.30;;;;;;4917495;28;93141;-79
2021/12/21 09:40:06;;;;;;;12.70;9.07;;;0.70;81.30;;;;;;4917559;28;92758;-80
2021/12/21 09:42:33;;;;;;;17.25;10.15;;;0.70;81.20;;;;;;4917912;28;92522;-79
2021/12/21 09:45:01;;;;;;;12.63;9.70;;;0.80;81.30;;;;;;4916653;28;92425;-71
2021/12/21 09:47:28;;;;;;;12.32;9.48;;;0.90;81.30;;;;;;4915844;28;98642;-79
2021/12/21 09:49:56;;;;;;;12.70;8.73;;;1.00;81.10;;;;;;4913455;28;95357;-80
2021/12/21 09:52:29;;;;;;;14.10;9.27;;;1.00;81.00;;;;;;4916873;28;92726;-81
2021/12/21 09:54:57;;;;;;;15.75;9.80;;;1.10;81.00;;;;;;4917042;28;92457;-80
2021/12/21 09:57:25;;;;;;;11.48;8.73;;;1.20;80.80;;;;;;4917482;28;93414;-74
2021/12/21 09:59:53;;;;;;;11.20;8.43;;;1.20;80.60;;;;;;4917485;28;92945;-76
2021/12/21 10:02:26;;;;;;;9.93;7.85;;;1.30;80.40;;;;;;4917402;28;92472;-74
2021/12/21 10:05:00;;;;;;;9.68;7.72;;;1.40;80.20;;;;;;4919536;28;92563;-73
2021/12/21 10:07:27;;;;;;;10.23;7.95;;;1.50;79.90;;;;;;4917764;28;93093;-81
2021/12/21 10:10:17;;;;;;;9.38;8.38;;;1.50;79.70;;;;;;4919234;28;93169;-80
2021/12/21 10:12:46;;;;;;;9.98;7.90;;;1.60;79.60;;;;;;4904298;28;95695;-82
2021/12/21 10:15:23;;;;;;;13.80;7.63;;;1.70;79.50;;;;;;4918361;28;93244;-80
2021/12/21 10:18:00;;;;;;;9.13;7.78;;;1.80;79.20;;;;;;4919263;28;93074;-79
2021/12/21 10:20:38;;;;;;;10.70;7.13;;;1.80;79.00;;;;;;4922569;28;95537;-82
2021/12/21 10:23:24;;;;;;;9.48;7.65;;;1.90;78.70;;;;;;4920013;28;92374;-77
2021/12/21 10:26:13;;;;;;;10.95;7.07;;;1.90;78.20;;;;;;4919590;28;94305;-77
2021/12/21 10:29:01;;;;;;;11.70;7.97;;;2.00;77.90;;;;;;4919844;28;93384;-80
2021/12/21 10:31:39;;;;;;;8.82;7.20;;;2.00;77.90;;;;;;4936328;28;92705;-80
2021/12/21 10:34:15;;;;;;;9.93;7.95;;;2.10;77.60;;;;;;4934987;28;92588;-81
2021/12/21 10:36:51;;;;;;;10.50;7.95;;;2.20;77.30;;;;;;4951035;28;94423;-79
2021/12/21 10:39:28;;;;;;;13.82;8.88;;;2.20;77.00;;;;;;4934866;28;95698;-79
2021/12/21 10:42:03;;;;;;;9.25;7.68;;;2.30;77.00;;;;;;4934171;28;99413;-81
2021/12/21 10:44:30;;;;;;;15.02;9.77;;;2.40;76.90;;;;;;4936051;28;92405;-82
2021/12/21 10:46:57;;;;;;;12.15;9.15;;;2.30;76.90;;;;;;4934387;28;92526;-81
2021/12/21 10:49:33;;;;;;;13.00;9.35;;;2.40;76.80;;;;;;4936005;28;93163;-79
2021/12/21 10:52:09;;;;;;;11.50;8.40;;;2.40;76.90;;;;;;4934352;28;93987;-81
2021/12/21 10:54:43;;;;;;;13.07;8.93;;;2.50;77.00;;;;;;4936343;28;92871;-81
2021/12/21 10:57:15;;;;;;;11.07;8.25;;;2.60;77.00;;;;;;4935451;28;91660;-80
2021/12/21 10:59:49;;;;;;;12.43;9.18;;;2.60;76.80;;;;;;4936004;28;93093;-80
2021/12/21 11:02:21;;;;;;;10.90;9.60;;;2.60;76.90;;;;;;4935253;28;92899;-71
2021/12/21 11:04:53;;;;;;;11.27;8.95;;;2.70;76.90;;;;;;4937151;28;94766;-71
2021/12/21 11:07:44;;;;;;;11.70;8.50;;;2.80;76.70;;;;;;4953932;28;92466;-73
2021/12/21 11:10:27;;;;;;;9.98;8.75;;;2.80;76.70;;;;;;4940115;28;95797;-72
2021/12/21 11:13:14;;;;;;;16.33;13.73;;;2.90;76.70;;;;;;4953766;28;94123;-73
2021/12/21 11:15:52;;;;;;;11.85;10.23;;;2.90;76.50;;;;;;4937333;28;92568;-72
2021/12/21 11:18:21;;;;;;;13.98;10.00;;;3.00;77.00;;;;;;4938285;28;92380;-73
2021/12/21 11:20:50;;;;;;;12.82;9.98;;;3.00;76.70;;;;;;4936311;28;94310;-79
2021/12/21 11:23:20;;;;;;;14.07;10.13;;;3.10;76.60;;;;;;4939090;28;92891;-71
2021/12/21 11:25:49;;;;;;;14.63;9.95;;;3.10;76.30;;;;;;4938203;28;92391;-80
2021/12/21 11:28:24;;;;;;;14.70;10.77;;;3.20;76.20;;;;;;4937355;28;92556;-81
2021/12/21 11:30:56;;;;;;;12.75;10.02;;;3.30;76.00;;;;;;4937294;28;95507;-81
2021/12/21 11:33:25;;;;;;;12.05;10.70;;;3.30;75.50;;;;;;4938117;28;95260;-81
2021/12/21 11:38:39;;;;;;;48.70;23.77;;;3.40;75.30;;;;;;4938379;28;92799;-81
2021/12/21 11:41:08;;;;;;;27.85;14.95;;;3.40;75.10;;;;;;4920685;28;93138;-73
2021/12/21 11:43:46;;;;;;;18.67;11.65;;;3.50;74.80;;;;;;4937606;28;92785;-81
2021/12/21 11:46:18;;;;;;;13.88;10.13;;;3.60;74.80;;;;;;4938184;28;92437;-71
2021/12/21 11:48:59;;;;;;;23.00;14.05;;;3.60;74.80;;;;;;4936803;28;91748;-79
2021/12/21 11:51:27;;;;;;;22.70;13.50;;;3.70;74.70;;;;;;4937775;28;93064;-71
2021/12/21 11:53:55;;;;;;;16.67;12.98;;;3.70;74.40;;;;;;4937618;28;99827;-72
2021/12/21 11:56:26;;;;;;;14.80;11.07;;;3.80;74.30;;;;;;4936192;28;95006;-73
2021/12/21 11:58:57;;;;;;;15.52;10.85;;;3.80;74.10;;;;;;4936562;28;92410;-72
2021/12/21 12:01:30;;;;;;;15.60;10.50;;;3.90;73.80;;;;;;4935957;28;94187;-72
2021/12/21 12:04:04;;;;;;;12.20;10.32;;;3.90;73.40;;;;;;4936307;28;93443;-72
2021/12/21 12:06:54;;;;;;;15.63;10.35;;;4.00;73.30;;;;;;4937668;28;92530;-79
2021/12/21 12:09:28;;;;;;;13.15;9.82;;;4.10;72.90;;;;;;4937974;28;92495;-80
2021/12/21 12:12:12;;;;;;;11.50;9.48;;;4.10;73.00;;;;;;4938555;28;92459;-80
2021/12/21 12:14:42;;;;;;;14.77;9.18;;;4.20;72.90;;;;;;4937198;28;92844;-79
2021/12/21 12:17:22;;;;;;;11.10;9.07;;;4.20;72.80;;;;;;4937860;28;92531;-71
2021/12/21 12:19:55;;;;;;;15.45;9.57;;;4.20;72.90;;;;;;4938216;28;92348;-80
2021/12/21 12:22:36;;;;;;;10.50;9.17;;;4.30;73.20;;;;;;4935879;28;95495;-73
2021/12/21 12:25:06;;;;;;;11.02;8.63;;;4.40;72.90;;;;;;4937918;28;95377;-79
2021/12/21 12:27:41;;;;;;;15.68;10.30;;;4.40;72.60;;;;;;4936767;28;92667;-80
2021/12/21 12:30:11;;;;;;;14.77;10.55;;;4.40;72.50;;;;;;4937696;28;92412;-79
2021/12/21 12:32:47;;;;;;;12.15;9.98;;;4.50;72.60;;;;;;4936774;28;94130;-79
2021/12/21 12:35:18;;;;;;;13.00;9.27;;;4.50;72.50;;;;;;4937186;28;92797;-79
2021/12/21 12:37:51;;;;;;;15.20;9.30;;;4.50;72.60;;;;;;4920058;28;92479;-78
2021/12/21 12:40:23;;;;;;;12.10;9.40;;;4.50;72.50;;;;;;4936917;28;91761;-79
2021/12/21 12:43:26;;;;;;;13.45;10.00;;;4.50;72.30;;;;;;4937162;28;93148;-79
2021/12/21 12:46:01;;;;;;;14.45;9.80;;;4.60;72.20;;;;;;4934419;28;95587;-78
2021/12/21 12:48:33;;;;;;;13.57;9.05;;;4.60;72.40;;;;;;4935800;28;94757;-78
2021/12/21 12:51:04;;;;;;;19.85;10.38;;;4.60;72.20;;;;;;4935990;28;92527;-78
2021/12/21 12:53:40;;;;;;;16.90;11.48;;;4.60;72.50;;;;;;4936708;28;93056;-71
2021/12/21 12:56:09;;;;;;;13.18;10.73;;;4.70;72.40;;;;;;4936823;28;92848;-71
2021/12/21 12:58:58;;;;;;;12.73;10.27;;;4.70;72.40;;;;;;4936892;28;92343;-71
2021/12/21 13:01:28;;;;;;;13.80;10.27;;;4.70;72.20;;;;;;4936597;28;92536;-71
2021/12/21 13:03:58;;;;;;;12.18;9.65;;;4.70;72.40;;;;;;4936475;28;93244;-78
2021/12/21 13:06:28;;;;;;;13.45;10.05;;;4.70;72.10;;;;;;4936119;28;92844;-78
2021/12/21 13:08:56;;;;;;;16.83;11.20;;;4.80;72.00;;;;;;4936717;28;92400;-78
2021/12/21 13:11:30;;;;;;;17.15;11.13;;;4.70;72.70;;;;;;4936747;28;92997;-78
2021/12/21 13:13:57;;;;;;;14.10;11.25;;;4.80;72.30;;;;;;4935375;28;95512;-78
2021/12/21 13:16:27;;;;;;;16.85;11.80;;;4.80;72.10;;;;;;4934977;28;98110;-71
2021/12/21 13:19:07;;;;;;;17.88;11.50;;;4.80;72.20;;;;;;4935319;28;92470;-71
2021/12/21 13:21:40;;;;;;;17.48;12.50;;;4.80;72.40;;;;;;4936193;28;92508;-71
2021/12/21 13:24:12;;;;;;;19.05;12.60;;;4.80;72.60;;;;;;4936339;28;93173;-70
2021/12/21 13:26:52;;;;;;;17.20;11.77;;;4.80;72.60;;;;;;4935661;28;92860;-71
2021/12/21 13:29:22;;;;;;;16.10;12.20;;;4.80;72.70;;;;;;4936601;28;92619;-70
2021/12/21 13:31:51;;;;;;;16.60;12.27;;;4.80;72.70;;;;;;4936374;28;91761;-70
2021/12/21 13:34:20;;;;;;;18.08;12.05;;;4.80;72.80;;;;;;4936307;28;93119;-70
2021/12/21 13:36:59;;;;;;;20.15;12.73;;;4.80;72.70;;;;;;4935495;28;92720;-70
2021/12/21 13:39:33;;;;;;;19.20;12.77;;;4.90;73.10;;;;;;4922162;28;96255;-74
2021/12/21 13:42:04;;;;;;;19.15;12.27;;;4.90;72.90;;;;;;4917704;28;93482;-69
2021/12/21 13:44:37;;;;;;;18.15;12.23;;;4.90;72.80;;;;;;4917420;28;95776;-69
2021/12/21 13:47:18;;;;;;;18.87;12.97;;;4.80;72.60;;;;;;4918940;28;92955;-69
2021/12/21 13:50:10;;;;;;;16.23;11.98;;;4.80;72.50;;;;;;4919214;28;93731;-69
2021/12/21 13:52:38;;;;;;;19.30;11.60;;;4.80;72.40;;;;;;4903372;28;92980;-69
2021/12/21 13:55:23;;;;;;;18.25;12.05;;;4.80;72.60;;;;;;4918378;28;93693;-76
2021/12/21 13:57:52;;;;;;;23.30;13.23;;;4.80;72.60;;;;;;4900855;28;94110;-76
2021/12/21 14:00:22;;;;;;;22.25;12.90;;;4.80;72.60;;;;;;4933304;28;92483;-76